sensor_id;sensor_type;location;lat;lon;timestamp;pressure;altitude;pressure_sealevel;temperature;humidity
7157;BME280;3620;49.862;8.758;2022-07-22T00:00:06;99688.50;;;22.41;78.68
7157;BME280;3620;49.862;8.758;2022-07-22T00:02:33;99682.28;;;22.40;78.58
7157;BME280;3620;49.862;8.758;2022-07-22T00:05:00;99684.53;;;22.35;78.84
7157;BME280;3620;49.862;8.758;2022-07-22T00:07:27;99685.63;;;22.33;78.86
7157;BME280;3620;49.862;8.758;2022-07-22T00:09:53;99691.97;;;22.32;78.83
7157;BME280;3620;49.862;8.758;2022-07-22T00:12:20;99687.59;;;22.31;78.78
7157;BME280;3620;49.862;8.758;2022-07-22T00:14:48;99693.47;;;22.25;78.89
7157;BME280;3620;49.862;8.758;2022-07-22T00:17:14;99702.75;;;22.21;79.35
7157;BME280;3620;49.862;8.758;2022-07-22T00:19:41;99693.75;;;22.22;79.02
7157;BME280;3620;49.862;8.758;2022-07-22T00:22:08;99695.75;;;22.29;78.76
7157;BME280;3620;49.862;8.758;2022-07-22T00:24:35;99697.16;;;22.24;78.44
7157;BME280;3620;49.862;8.758;2022-07-22T00:27:04;99690.34;;;22.20;78.68
7157;BME280;3620;49.862;8.758;2022-07-22T00:29:31;99686.22;;;22.16;78.83
7157;BME280;3620;49.862;8.758;2022-07-22T00:31:59;99684.06;;;22.10;78.62
7157;BME280;3620;49.862;8.758;2022-07-22T00:34:26;99680.25;;;21.92;79.78
7157;BME280;3620;49.862;8.758;2022-07-22T00:36:52;99675.44;;;21.85;80.02
7157;BME280;3620;49.862;8.758;2022-07-22T00:39:19;99682.97;;;21.80;80.45
7157;BME280;3620;49.862;8.758;2022-07-22T00:41:47;99685.66;;;21.80;81.54
7157;BME280;3620;49.862;8.758;2022-07-22T00:44:14;99689.69;;;21.86;81.51
7157;BME280;3620;49.862;8.758;2022-07-22T00:46:41;99685.44;;;21.83;81.35
7157;BME280;3620;49.862;8.758;2022-07-22T00:49:09;99684.22;;;21.76;81.16
7157;BME280;3620;49.862;8.758;2022-07-22T00:51:36;99680.09;;;21.72;80.75
7157;BME280;3620;49.862;8.758;2022-07-22T00:54:05;99677.19;;;21.75;80.46
7157;BME280;3620;49.862;8.758;2022-07-22T00:56:32;99674.50;;;21.75;80.27
7157;BME280;3620;49.862;8.758;2022-07-22T00:59:01;99684.25;;;21.65;80.56
7157;BME280;3620;49.862;8.758;2022-07-22T01:01:30;99681.97;;;21.61;81.12
7157;BME280;3620;49.862;8.758;2022-07-22T01:03:56;99668.19;;;21.65;81.67
7157;BME280;3620;49.862;8.758;2022-07-22T01:06:24;99676.69;;;21.70;80.95
7157;BME280;3620;49.862;8.758;2022-07-22T01:08:51;99668.44;;;21.62;80.52
7157;BME280;3620;49.862;8.758;2022-07-22T01:11:19;99667.00;;;21.58;81.77
7157;BME280;3620;49.862;8.758;2022-07-22T01:13:47;99677.03;;;21.45;82.44
7157;BME280;3620;49.862;8.758;2022-07-22T01:16:16;99670.19;;;21.52;82.15
7157;BME280;3620;49.862;8.758;2022-07-22T01:18:43;99671.16;;;21.51;82.37
7157;BME280;3620;49.862;8.758;2022-07-22T01:21:12;99676.78;;;21.48;82.47
7157;BME280;3620;49.862;8.758;2022-07-22T01:23:39;99671.16;;;21.51;82.26
7157;BME280;3620;49.862;8.758;2022-07-22T01:26:06;99692.09;;;21.57;82.10
7157;BME280;3620;49.862;8.758;2022-07-22T01:28:33;99678.22;;;21.52;81.66
7157;BME280;3620;49.862;8.758;2022-07-22T01:31:00;99679.22;;;21.40;82.09
7157;BME280;3620;49.862;8.758;2022-07-22T01:33:26;99682.63;;;21.42;82.37
7157;BME280;3620;49.862;8.758;2022-07-22T01:35:53;99684.59;;;21.40;82.86
7157;BME280;3620;49.862;8.758;2022-07-22T01:38:21;99682.03;;;21.39;82.51
7157;BME280;3620;49.862;8.758;2022-07-22T01:40:48;99682.28;;;21.36;82.99
7157;BME280;3620;49.862;8.758;2022-07-22T01:43:15;99678.31;;;21.30;82.15
7157;BME280;3620;49.862;8.758;2022-07-22T01:45:43;99681.94;;;21.29;82.43
7157;BME280;3620;49.862;8.758;2022-07-22T01:48:10;99676.88;;;21.26;83.24
7157;BME280;3620;49.862;8.758;2022-07-22T01:50:37;99675.78;;;21.29;83.21
7157;BME280;3620;49.862;8.758;2022-07-22T01:53:03;99673.91;;;21.29;83.32
7157;BME280;3620;49.862;8.758;2022-07-22T01:55:31;99672.00;;;21.20;83.38
7157;BME280;3620;49.862;8.758;2022-07-22T01:57:58;99674.28;;;21.25;83.40
7157;BME280;3620;49.862;8.758;2022-07-22T02:00:25;99670.56;;;21.16;83.46
7157;BME280;3620;49.862;8.758;2022-07-22T02:02:52;99678.34;;;21.19;83.94
7157;BME280;3620;49.862;8.758;2022-07-22T02:05:19;99676.16;;;21.13;83.91
7157;BME280;3620;49.862;8.758;2022-07-22T02:07:45;99673.50;;;21.13;84.31
7157;BME280;3620;49.862;8.758;2022-07-22T02:10:12;99668.88;;;21.15;84.11
7157;BME280;3620;49.862;8.758;2022-07-22T02:12:40;99669.81;;;21.14;84.27
7157;BME280;3620;49.862;8.758;2022-07-22T02:15:08;99671.06;;;21.10;83.99
7157;BME280;3620;49.862;8.758;2022-07-22T02:17:35;99673.00;;;21.08;84.00
7157;BME280;3620;49.862;8.758;2022-07-22T02:20:03;99681.25;;;21.16;83.60
7157;BME280;3620;49.862;8.758;2022-07-22T02:22:30;99680.28;;;21.17;83.63
7157;BME280;3620;49.862;8.758;2022-07-22T02:24:56;99673.50;;;21.13;83.79
7157;BME280;3620;49.862;8.758;2022-07-22T02:27:23;99673.72;;;21.21;83.69
7157;BME280;3620;49.862;8.758;2022-07-22T02:29:51;99683.22;;;21.14;82.94
7157;BME280;3620;49.862;8.758;2022-07-22T02:32:18;99683.00;;;21.06;83.63
7157;BME280;3620;49.862;8.758;2022-07-22T02:34:45;99676.53;;;20.97;84.34
7157;BME280;3620;49.862;8.758;2022-07-22T02:37:12;99675.91;;;20.94;84.95
7157;BME280;3620;49.862;8.758;2022-07-22T02:39:39;99666.19;;;20.93;84.07
7157;BME280;3620;49.862;8.758;2022-07-22T02:42:05;99672.50;;;20.92;84.63
7157;BME280;3620;49.862;8.758;2022-07-22T02:44:32;99669.69;;;20.93;85.00
7157;BME280;3620;49.862;8.758;2022-07-22T02:47:00;99674.22;;;20.93;85.03
7157;BME280;3620;49.862;8.758;2022-07-22T02:49:27;99677.13;;;20.90;85.19
7157;BME280;3620;49.862;8.758;2022-07-22T02:51:54;99671.06;;;20.88;85.00
7157;BME280;3620;49.862;8.758;2022-07-22T02:54:21;99674.22;;;20.93;85.09
7157;BME280;3620;49.862;8.758;2022-07-22T02:56:47;99673.38;;;20.92;85.01
7157;BME280;3620;49.862;8.758;2022-07-22T02:59:14;99677.88;;;20.92;84.69
7157;BME280;3620;49.862;8.758;2022-07-22T03:01:41;99674.47;;;20.90;84.30
7157;BME280;3620;49.862;8.758;2022-07-22T03:04:09;99676.19;;;20.69;85.66
7157;BME280;3620;49.862;8.758;2022-07-22T03:06:36;99674.72;;;20.65;86.34
7157;BME280;3620;49.862;8.758;2022-07-22T03:09:02;99682.28;;;20.71;86.34
7157;BME280;3620;49.862;8.758;2022-07-22T03:11:29;99680.56;;;20.81;85.49
7157;BME280;3620;49.862;8.758;2022-07-22T03:13:56;99679.09;;;20.66;86.08
7157;BME280;3620;49.862;8.758;2022-07-22T03:16:23;99680.69;;;20.57;86.15
7157;BME280;3620;49.862;8.758;2022-07-22T03:18:50;99677.16;;;20.57;86.43
7157;BME280;3620;49.862;8.758;2022-07-22T03:21:18;99686.13;;;20.56;86.63
7157;BME280;3620;49.862;8.758;2022-07-22T03:23:44;99678.50;;;20.73;86.06
7157;BME280;3620;49.862;8.758;2022-07-22T03:26:11;99676.56;;;20.86;85.21
7157;BME280;3620;49.862;8.758;2022-07-22T03:28:38;99681.25;;;20.94;84.89
7157;BME280;3620;49.862;8.758;2022-07-22T03:31:05;99678.88;;;20.69;85.78
7157;BME280;3620;49.862;8.758;2022-07-22T03:33:31;99676.94;;;20.60;86.47
7157;BME280;3620;49.862;8.758;2022-07-22T03:35:58;99677.66;;;20.51;87.38
7157;BME280;3620;49.862;8.758;2022-07-22T03:38:26;99679.09;;;20.55;86.80
7157;BME280;3620;49.862;8.758;2022-07-22T03:40:53;99687.84;;;20.57;87.08
7157;BME280;3620;49.862;8.758;2022-07-22T03:43:21;99685.66;;;20.51;87.07
7157;BME280;3620;49.862;8.758;2022-07-22T03:45:47;99678.63;;;20.61;86.89
7157;BME280;3620;49.862;8.758;2022-07-22T03:48:14;99681.06;;;20.53;87.58
7157;BME280;3620;49.862;8.758;2022-07-22T03:50:41;99675.84;;;20.62;87.10
7157;BME280;3620;49.862;8.758;2022-07-22T03:53:07;99682.00;;;20.63;86.93
7157;BME280;3620;49.862;8.758;2022-07-22T03:55:36;99675.94;;;20.50;86.91
7157;BME280;3620;49.862;8.758;2022-07-22T03:58:02;99674.00;;;20.52;87.07
7157;BME280;3620;49.862;8.758;2022-07-22T04:00:29;99673.53;;;20.47;87.24
7157;BME280;3620;49.862;8.758;2022-07-22T04:02:56;99677.03;;;20.47;87.69
7157;BME280;3620;49.862;8.758;2022-07-22T04:05:22;99676.78;;;20.50;87.71
7157;BME280;3620;49.862;8.758;2022-07-22T04:07:49;99685.31;;;20.55;87.86
7157;BME280;3620;49.862;8.758;2022-07-22T04:10:16;99680.06;;;20.65;87.57
7157;BME280;3620;49.862;8.758;2022-07-22T04:12:44;99683.22;;;20.70;87.28
7157;BME280;3620;49.862;8.758;2022-07-22T04:15:10;99678.38;;;20.75;87.04
7157;BME280;3620;49.862;8.758;2022-07-22T04:17:37;99676.31;;;20.67;86.25
7157;BME280;3620;49.862;8.758;2022-07-22T04:20:05;99680.19;;;20.74;86.47
7157;BME280;3620;49.862;8.758;2022-07-22T04:22:32;99679.09;;;20.77;86.31
7157;BME280;3620;49.862;8.758;2022-07-22T04:24:59;99678.38;;;20.75;86.91
7157;BME280;3620;49.862;8.758;2022-07-22T04:27:25;99670.00;;;20.68;87.19
7157;BME280;3620;49.862;8.758;2022-07-22T04:29:53;99673.53;;;20.80;87.41
7157;BME280;3620;49.862;8.758;2022-07-22T04:32:20;99673.59;;;20.89;87.61
7157;BME280;3620;49.862;8.758;2022-07-22T04:34:47;99674.44;;;21.01;87.61
7157;BME280;3620;49.862;8.758;2022-07-22T04:37:13;99667.66;;;21.08;86.74
7157;BME280;3620;49.862;8.758;2022-07-22T04:39:40;99669.44;;;21.18;86.49
7157;BME280;3620;49.862;8.758;2022-07-22T04:42:07;99669.69;;;21.27;86.61
7157;BME280;3620;49.862;8.758;2022-07-22T04:44:34;99667.59;;;21.30;86.79
7157;BME280;3620;49.862;8.758;2022-07-22T04:47:02;99665.13;;;21.38;86.25
7157;BME280;3620;49.862;8.758;2022-07-22T04:49:28;99666.22;;;21.36;85.77
7157;BME280;3620;49.862;8.758;2022-07-22T04:51:55;99674.53;;;21.33;86.16
7157;BME280;3620;49.862;8.758;2022-07-22T04:54:22;99675.50;;;21.32;86.13
7157;BME280;3620;49.862;8.758;2022-07-22T04:56:48;99667.09;;;21.36;85.61
7157;BME280;3620;49.862;8.758;2022-07-22T04:59:15;99665.75;;;21.42;84.44
7157;BME280;3620;49.862;8.758;2022-07-22T05:01:42;99665.22;;;21.48;84.17
7157;BME280;3620;49.862;8.758;2022-07-22T05:04:10;99666.81;;;21.50;83.87
7157;BME280;3620;49.862;8.758;2022-07-22T05:06:37;99660.72;;;21.48;84.54
7157;BME280;3620;49.862;8.758;2022-07-22T05:09:03;99664.13;;;21.50;83.93
7157;BME280;3620;49.862;8.758;2022-07-22T05:11:30;99670.41;;;21.60;83.64
7157;BME280;3620;49.862;8.758;2022-07-22T05:13:57;99671.59;;;21.67;83.78
7157;BME280;3620;49.862;8.758;2022-07-22T05:16:24;99668.91;;;21.67;81.73
7157;BME280;3620;49.862;8.758;2022-07-22T05:18:50;99669.78;;;21.68;81.34
7157;BME280;3620;49.862;8.758;2022-07-22T05:21:18;99664.28;;;21.69;82.00
7157;BME280;3620;49.862;8.758;2022-07-22T05:23:45;99663.25;;;21.81;80.65
7157;BME280;3620;49.862;8.758;2022-07-22T05:26:12;99667.19;;;21.77;80.44
7157;BME280;3620;49.862;8.758;2022-07-22T05:28:38;99665.22;;;21.79;81.02
7157;BME280;3620;49.862;8.758;2022-07-22T05:31:05;99667.03;;;21.79;80.79
7157;BME280;3620;49.862;8.758;2022-07-22T05:33:32;99676.56;;;21.72;82.09
7157;BME280;3620;49.862;8.758;2022-07-22T05:35:59;99664.88;;;21.73;81.25
7157;BME280;3620;49.862;8.758;2022-07-22T05:38:27;99671.34;;;21.70;81.10
7157;BME280;3620;49.862;8.758;2022-07-22T05:40:54;99683.06;;;21.58;80.88
7157;BME280;3620;49.862;8.758;2022-07-22T05:43:20;99675.75;;;21.60;81.25
7157;BME280;3620;49.862;8.758;2022-07-22T05:45:47;99675.50;;;21.63;81.80
7157;BME280;3620;49.862;8.758;2022-07-22T05:48:14;99677.72;;;21.58;81.35
7157;BME280;3620;49.862;8.758;2022-07-22T05:50:40;99675.91;;;21.59;81.96
7157;BME280;3620;49.862;8.758;2022-07-22T05:53:07;99677.72;;;21.58;82.37
7157;BME280;3620;49.862;8.758;2022-07-22T05:55:35;99671.88;;;21.64;81.77
7157;BME280;3620;49.862;8.758;2022-07-22T05:58:02;99680.00;;;21.63;81.75
7157;BME280;3620;49.862;8.758;2022-07-22T06:00:29;99684.25;;;21.65;81.27
7157;BME280;3620;49.862;8.758;2022-07-22T06:02:56;99677.47;;;21.61;79.06
7157;BME280;3620;49.862;8.758;2022-07-22T06:05:23;99684.66;;;21.61;79.31
7157;BME280;3620;49.862;8.758;2022-07-22T06:07:49;99681.38;;;21.57;80.97
7157;BME280;3620;49.862;8.758;2022-07-22T06:10:16;99682.81;;;21.61;80.40
7157;BME280;3620;49.862;8.758;2022-07-22T06:12:44;99683.22;;;21.57;79.39
7157;BME280;3620;49.862;8.758;2022-07-22T06:15:11;99681.00;;;21.62;79.46
7157;BME280;3620;49.862;8.758;2022-07-22T06:17:37;99675.38;;;21.65;80.44
7157;BME280;3620;49.862;8.758;2022-07-22T06:20:05;99677.88;;;21.77;81.15
7157;BME280;3620;49.862;8.758;2022-07-22T06:22:32;99680.56;;;21.77;80.25
7157;BME280;3620;49.862;8.758;2022-07-22T06:24:59;99677.88;;;21.77;80.63
7157;BME280;3620;49.862;8.758;2022-07-22T06:27:25;99672.53;;;21.77;81.26
7157;BME280;3620;49.862;8.758;2022-07-22T06:29:53;99668.00;;;21.78;80.57
7157;BME280;3620;49.862;8.758;2022-07-22T06:32:20;99670.28;;;21.82;80.38
7157;BME280;3620;49.862;8.758;2022-07-22T06:34:47;99670.56;;;21.79;80.90
7157;BME280;3620;49.862;8.758;2022-07-22T06:37:13;99665.22;;;21.79;80.41
7157;BME280;3620;49.862;8.758;2022-07-22T06:39:40;99670.53;;;21.91;80.07
7157;BME280;3620;49.862;8.758;2022-07-22T06:42:08;99662.50;;;21.91;80.36
7157;BME280;3620;49.862;8.758;2022-07-22T06:44:34;99669.31;;;21.95;82.21
7157;BME280;3620;49.862;8.758;2022-07-22T06:47:02;99661.06;;;22.07;81.63
7157;BME280;3620;49.862;8.758;2022-07-22T06:49:29;99665.63;;;22.16;80.67
7157;BME280;3620;49.862;8.758;2022-07-22T06:51:56;99661.44;;;22.23;80.22
7157;BME280;3620;49.862;8.758;2022-07-22T06:54:22;99663.09;;;22.45;79.84
7157;BME280;3620;49.862;8.758;2022-07-22T06:56:49;99656.47;;;22.70;76.63
7157;BME280;3620;49.862;8.758;2022-07-22T06:59:16;99659.19;;;22.79;76.92
7157;BME280;3620;49.862;8.758;2022-07-22T07:01:42;99660.25;;;22.97;76.44
7157;BME280;3620;49.862;8.758;2022-07-22T07:04:10;99660.31;;;23.26;74.29
7157;BME280;3620;49.862;8.758;2022-07-22T07:06:37;99652.28;;;23.36;73.69
7157;BME280;3620;49.862;8.758;2022-07-22T07:09:04;99654.69;;;23.48;73.15
7157;BME280;3620;49.862;8.758;2022-07-22T07:11:31;99646.06;;;23.45;72.76
7157;BME280;3620;49.862;8.758;2022-07-22T07:13:57;99642.25;;;23.57;70.58
7157;BME280;3620;49.862;8.758;2022-07-22T07:16:24;99650.19;;;23.49;70.16
7157;BME280;3620;49.862;8.758;2022-07-22T07:18:51;99643.94;;;23.39;70.06
7157;BME280;3620;49.862;8.758;2022-07-22T07:21:19;99648.25;;;23.20;70.77
7157;BME280;3620;49.862;8.758;2022-07-22T07:23:46;99648.38;;;23.09;71.17
7157;BME280;3620;49.862;8.758;2022-07-22T07:26:12;99637.06;;;22.96;71.83
7157;BME280;3620;49.862;8.758;2022-07-22T07:28:39;99632.25;;;22.90;73.11
7157;BME280;3620;49.862;8.758;2022-07-22T07:31:06;99634.53;;;22.95;73.10
7157;BME280;3620;49.862;8.758;2022-07-22T07:33:33;99638.06;;;22.95;73.38
7157;BME280;3620;49.862;8.758;2022-07-22T07:36:01;99633.97;;;23.01;72.85
7157;BME280;3620;49.862;8.758;2022-07-22T07:38:29;99628.88;;;23.07;73.04
7157;BME280;3620;49.862;8.758;2022-07-22T07:40:56;99628.00;;;22.88;71.67
7157;BME280;3620;49.862;8.758;2022-07-22T07:43:23;99623.19;;;22.91;72.72
7157;BME280;3620;49.862;8.758;2022-07-22T07:45:49;99637.03;;;22.77;73.56
7157;BME280;3620;49.862;8.758;2022-07-22T07:48:16;99631.09;;;22.83;73.87
7157;BME280;3620;49.862;8.758;2022-07-22T07:50:43;99625.72;;;22.83;72.76
7157;BME280;3620;49.862;8.758;2022-07-22T07:53:13;99617.53;;;22.85;73.21
7157;BME280;3620;49.862;8.758;2022-07-22T07:55:42;99615.97;;;22.82;73.77
7157;BME280;3620;49.862;8.758;2022-07-22T07:58:08;99618.97;;;22.89;74.28
7157;BME280;3620;49.862;8.758;2022-07-22T08:00:36;99624.09;;;23.01;73.59
7157;BME280;3620;49.862;8.758;2022-07-22T08:03:04;99623.25;;;23.10;73.01
7157;BME280;3620;49.862;8.758;2022-07-22T08:05:31;99615.34;;;23.18;73.37
7157;BME280;3620;49.862;8.758;2022-07-22T08:07:58;99615.06;;;23.21;72.13
7157;BME280;3620;49.862;8.758;2022-07-22T08:10:25;99616.22;;;23.28;71.99
7157;BME280;3620;49.862;8.758;2022-07-22T08:12:53;99615.50;;;23.26;72.18
7157;BME280;3620;49.862;8.758;2022-07-22T08:15:21;99611.00;;;23.37;72.31
7157;BME280;3620;49.862;8.758;2022-07-22T08:17:48;99613.13;;;23.43;70.82
7157;BME280;3620;49.862;8.758;2022-07-22T08:20:15;99615.97;;;23.51;72.61
7157;BME280;3620;49.862;8.758;2022-07-22T08:22:41;99615.66;;;23.54;71.18
7157;BME280;3620;49.862;8.758;2022-07-22T08:25:08;99620.50;;;23.60;71.43
7157;BME280;3620;49.862;8.758;2022-07-22T08:27:35;99616.38;;;23.46;70.48
7157;BME280;3620;49.862;8.758;2022-07-22T08:30:05;99613.69;;;23.56;71.45
7157;BME280;3620;49.862;8.758;2022-07-22T08:32:32;99616.22;;;23.67;71.38
7157;BME280;3620;49.862;8.758;2022-07-22T08:34:59;99612.97;;;23.73;70.76
7157;BME280;3620;49.862;8.758;2022-07-22T08:37:25;99615.78;;;23.81;71.54
7157;BME280;3620;49.862;8.758;2022-07-22T08:39:52;99609.97;;;23.95;70.02
7157;BME280;3620;49.862;8.758;2022-07-22T08:42:20;99604.00;;;24.01;69.58
7157;BME280;3620;49.862;8.758;2022-07-22T08:44:47;99603.59;;;23.96;70.25
7157;BME280;3620;49.862;8.758;2022-07-22T08:47:20;99598.09;;;23.97;68.70
7157;BME280;3620;49.862;8.758;2022-07-22T08:49:46;99593.25;;;24.01;68.42
7157;BME280;3620;49.862;8.758;2022-07-22T08:52:13;99587.03;;;24.00;68.80
7157;BME280;3620;49.862;8.758;2022-07-22T08:54:40;99589.59;;;24.02;68.96
7157;BME280;3620;49.862;8.758;2022-07-22T08:57:07;99580.28;;;24.06;67.51
7157;BME280;3620;49.862;8.758;2022-07-22T08:59:48;99582.84;;;23.88;67.50
7157;BME280;3620;49.862;8.758;2022-07-22T09:02:17;99587.59;;;24.04;67.91
7157;BME280;3620;49.862;8.758;2022-07-22T09:04:55;99585.91;;;24.03;67.79
7157;BME280;3620;49.862;8.758;2022-07-22T09:07:27;99592.41;;;24.10;68.41
7157;BME280;3620;49.862;8.758;2022-07-22T09:09:54;99586.44;;;24.16;67.53
7157;BME280;3620;49.862;8.758;2022-07-22T09:12:21;99584.97;;;24.31;67.68
7157;BME280;3620;49.862;8.758;2022-07-22T09:14:50;99588.66;;;24.40;67.54
7157;BME280;3620;49.862;8.758;2022-07-22T09:17:27;99575.03;;;24.41;65.93
7157;BME280;3620;49.862;8.758;2022-07-22T09:19:55;99583.00;;;24.33;65.23
7157;BME280;3620;49.862;8.758;2022-07-22T09:22:32;99577.66;;;24.24;65.92
7157;BME280;3620;49.862;8.758;2022-07-22T09:25:16;99570.44;;;24.24;68.82
7157;BME280;3620;49.862;8.758;2022-07-22T09:27:44;99581.53;;;24.48;67.80
7157;BME280;3620;49.862;8.758;2022-07-22T09:30:12;99585.75;;;24.51;67.89
7157;BME280;3620;49.862;8.758;2022-07-22T09:32:42;99587.28;;;24.53;66.29
7157;BME280;3620;49.862;8.758;2022-07-22T09:35:09;99580.75;;;24.56;64.17
7157;BME280;3620;49.862;8.758;2022-07-22T09:37:36;99578.91;;;24.56;64.98
7157;BME280;3620;49.862;8.758;2022-07-22T09:40:12;99573.00;;;24.53;64.74
7157;BME280;3620;49.862;8.758;2022-07-22T09:42:47;99570.44;;;24.51;64.04
7157;BME280;3620;49.862;8.758;2022-07-22T09:45:15;99565.47;;;24.56;66.66
7157;BME280;3620;49.862;8.758;2022-07-22T09:47:43;99566.13;;;24.68;66.59
7157;BME280;3620;49.862;8.758;2022-07-22T09:50:15;99557.88;;;24.69;66.35
7157;BME280;3620;49.862;8.758;2022-07-22T09:52:42;99561.88;;;24.75;65.33
7157;BME280;3620;49.862;8.758;2022-07-22T09:55:10;99561.78;;;24.85;66.28
7157;BME280;3620;49.862;8.758;2022-07-22T09:57:37;99566.25;;;24.94;65.43
7157;BME280;3620;49.862;8.758;2022-07-22T10:00:06;99555.88;;;24.99;64.78
7157;BME280;3620;49.862;8.758;2022-07-22T10:02:40;99565.03;;;25.06;62.86
7157;BME280;3620;49.862;8.758;2022-07-22T10:05:11;99560.41;;;25.16;62.29
7157;BME280;3620;49.862;8.758;2022-07-22T10:07:39;99552.09;;;25.27;60.42
7157;BME280;3620;49.862;8.758;2022-07-22T10:10:08;99552.72;;;25.21;61.92
7157;BME280;3620;49.862;8.758;2022-07-22T10:12:36;99552.09;;;25.27;62.37
7157;BME280;3620;49.862;8.758;2022-07-22T10:15:04;99547.72;;;25.26;61.88
7157;BME280;3620;49.862;8.758;2022-07-22T10:17:31;99541.03;;;25.30;63.26
7157;BME280;3620;49.862;8.758;2022-07-22T10:19:58;99540.78;;;25.41;63.17
7157;BME280;3620;49.862;8.758;2022-07-22T10:22:47;99537.81;;;25.44;63.72
7157;BME280;3620;49.862;8.758;2022-07-22T10:25:15;99540.56;;;25.52;61.25
7157;BME280;3620;49.862;8.758;2022-07-22T10:27:44;99533.94;;;25.64;61.14
7157;BME280;3620;49.862;8.758;2022-07-22T10:30:12;99523.69;;;25.68;61.88
7157;BME280;3620;49.862;8.758;2022-07-22T10:32:39;99532.91;;;25.65;59.62
7157;BME280;3620;49.862;8.758;2022-07-22T10:35:23;99531.94;;;25.66;59.78
7157;BME280;3620;49.862;8.758;2022-07-22T10:37:55;99529.91;;;25.68;59.26
7157;BME280;3620;49.862;8.758;2022-07-22T10:40:25;99526.97;;;25.79;57.98
7157;BME280;3620;49.862;8.758;2022-07-22T10:43:11;99515.81;;;25.74;58.08
7157;BME280;3620;49.862;8.758;2022-07-22T10:45:40;99519.34;;;25.75;58.41
7157;BME280;3620;49.862;8.758;2022-07-22T10:48:10;99514.47;;;25.78;57.32
7157;BME280;3620;49.862;8.758;2022-07-22T10:51:04;99515.84;;;25.82;59.29
7157;BME280;3620;49.862;8.758;2022-07-22T10:53:45;99507.81;;;25.90;58.11
7157;BME280;3620;49.862;8.758;2022-07-22T10:56:14;99508.00;;;25.89;57.65
7157;BME280;3620;49.862;8.758;2022-07-22T10:58:52;99497.75;;;26.00;56.02
7157;BME280;3620;49.862;8.758;2022-07-22T11:01:22;99497.75;;;26.00;56.70
7157;BME280;3620;49.862;8.758;2022-07-22T11:03:49;99493.00;;;25.94;55.27
7157;BME280;3620;49.862;8.758;2022-07-22T11:06:22;99491.19;;;26.03;56.41
7157;BME280;3620;49.862;8.758;2022-07-22T11:08:53;99488.25;;;26.14;57.32
7157;BME280;3620;49.862;8.758;2022-07-22T11:11:39;99499.56;;;26.17;55.42
7157;BME280;3620;49.862;8.758;2022-07-22T11:14:20;99492.50;;;26.25;54.24
7157;BME280;3620;49.862;8.758;2022-07-22T11:16:50;99495.19;;;26.25;54.76
7157;BME280;3620;49.862;8.758;2022-07-22T11:19:26;99490.53;;;26.35;54.72
7157;BME280;3620;49.862;8.758;2022-07-22T11:21:55;99479.38;;;26.30;54.49
7157;BME280;3620;49.862;8.758;2022-07-22T11:24:25;99479.75;;;26.35;54.46
7157;BME280;3620;49.862;8.758;2022-07-22T11:26:54;99474.06;;;26.54;54.54
7157;BME280;3620;49.862;8.758;2022-07-22T11:29:26;99473.75;;;26.65;53.28
7157;BME280;3620;49.862;8.758;2022-07-22T11:31:56;99472.06;;;26.72;53.44
7157;BME280;3620;49.862;8.758;2022-07-22T11:34:24;99464.34;;;26.77;53.18
7157;BME280;3620;49.862;8.758;2022-07-22T11:36:53;99463.84;;;26.89;53.42
7157;BME280;3620;49.862;8.758;2022-07-22T11:39:24;99461.66;;;26.85;51.85
7157;BME280;3620;49.862;8.758;2022-07-22T11:41:54;99459.28;;;26.98;50.95
7157;BME280;3620;49.862;8.758;2022-07-22T11:44:24;99449.00;;;27.10;49.74
7157;BME280;3620;49.862;8.758;2022-07-22T11:46:54;99445.81;;;27.14;49.57
7157;BME280;3620;49.862;8.758;2022-07-22T11:49:25;99432.97;;;27.00;48.38
7157;BME280;3620;49.862;8.758;2022-07-22T11:51:54;99434.66;;;27.01;49.16
7157;BME280;3620;49.862;8.758;2022-07-22T11:54:24;99430.28;;;27.08;50.04
7157;BME280;3620;49.862;8.758;2022-07-22T11:56:52;99430.75;;;27.28;50.35
7157;BME280;3620;49.862;8.758;2022-07-22T11:59:23;99434.16;;;27.14;48.28
7157;BME280;3620;49.862;8.758;2022-07-22T12:01:52;99436.03;;;27.13;47.98
7157;BME280;3620;49.862;8.758;2022-07-22T12:04:22;99432.28;;;27.22;47.90
7157;BME280;3620;49.862;8.758;2022-07-22T12:06:51;99428.56;;;27.23;46.66
7157;BME280;3620;49.862;8.758;2022-07-22T12:09:23;99426.22;;;27.28;48.88
7157;BME280;3620;49.862;8.758;2022-07-22T12:11:56;99431.28;;;27.47;48.36
7157;BME280;3620;49.862;8.758;2022-07-22T12:14:26;99425.84;;;27.64;46.34
7157;BME280;3620;49.862;8.758;2022-07-22T12:16:56;99425.50;;;27.67;46.76
7157;BME280;3620;49.862;8.758;2022-07-22T12:19:25;99422.19;;;27.87;46.83
7157;BME280;3620;49.862;8.758;2022-07-22T12:21:57;99418.97;;;27.92;47.01
7157;BME280;3620;49.862;8.758;2022-07-22T12:24:28;99420.16;;;27.97;48.65
7157;BME280;3620;49.862;8.758;2022-07-22T12:26:59;99409.47;;;27.96;49.17
7157;BME280;3620;49.862;8.758;2022-07-22T12:29:29;99420.16;;;27.97;47.75
7157;BME280;3620;49.862;8.758;2022-07-22T12:31:57;99412.88;;;28.06;47.70
7157;BME280;3620;49.862;8.758;2022-07-22T12:34:33;99408.13;;;28.08;47.80
7157;BME280;3620;49.862;8.758;2022-07-22T12:37:11;99410.88;;;28.00;46.99
7157;BME280;3620;49.862;8.758;2022-07-22T12:39:39;99414.00;;;28.11;46.35
7157;BME280;3620;49.862;8.758;2022-07-22T12:42:17;99404.69;;;28.14;46.15
7157;BME280;3620;49.862;8.758;2022-07-22T12:44:52;99404.25;;;28.02;47.08
7157;BME280;3620;49.862;8.758;2022-07-22T12:47:40;99399.00;;;28.09;46.37
7157;BME280;3620;49.862;8.758;2022-07-22T12:50:24;99392.88;;;28.15;46.95
7157;BME280;3620;49.862;8.758;2022-07-22T12:52:53;99396.72;;;28.20;45.44
7157;BME280;3620;49.862;8.758;2022-07-22T12:55:20;99399.94;;;28.24;45.19
7157;BME280;3620;49.862;8.758;2022-07-22T12:57:49;99390.75;;;28.33;45.79
7157;BME280;3620;49.862;8.758;2022-07-22T13:00:17;99395.13;;;28.57;46.90
7157;BME280;3620;49.862;8.758;2022-07-22T13:02:44;99383.81;;;28.61;46.90
7157;BME280;3620;49.862;8.758;2022-07-22T13:05:11;99366.78;;;28.75;47.08
7157;BME280;3620;49.862;8.758;2022-07-22T13:07:38;99368.44;;;28.99;46.71
7157;BME280;3620;49.862;8.758;2022-07-22T13:10:06;99366.72;;;29.21;46.81
7157;BME280;3620;49.862;8.758;2022-07-22T13:12:33;99363.53;;;29.32;44.60
7157;BME280;3620;49.862;8.758;2022-07-22T13:15:01;99356.44;;;29.45;44.19
7157;BME280;3620;49.862;8.758;2022-07-22T13:17:28;99357.19;;;29.54;43.28
7157;BME280;3620;49.862;8.758;2022-07-22T13:19:54;99353.75;;;29.60;43.28
7157;BME280;3620;49.862;8.758;2022-07-22T13:22:21;99348.06;;;29.84;43.86
7157;BME280;3620;49.862;8.758;2022-07-22T13:24:48;99352.06;;;29.88;43.77
7157;BME280;3620;49.862;8.758;2022-07-22T13:27:15;99349.53;;;29.72;42.06